Time;durP1;ratioP1;P1;durP2;ratioP2;P2;SDS_P1;SDS_P2;PMS_P1;PMS_P2;Temp;Humidity;BMP_temperature;BMP_pressure;BME280_temperature;BME280_humidity;BME280_pressure;Samples;Min_cycle;Max_cycle;Signal;HPM_P1;HPM_P2
2023/07/31 00:01:11;;;;;;;7.30;3.40;;;11.60;99.90;;;;;;8395487;28;20032;-76
2023/07/31 00:05:11;;;;;;;8.45;3.58;;;11.50;99.90;;;;;;8400008;28;20059;-77
2023/07/31 00:09:12;;;;;;;6.50;3.10;;;11.30;99.90;;;;;;8420409;28;20056;-77
2023/07/31 00:13:12;;;;;;;5.05;3.42;;;11.10;99.90;;;;;;8382073;28;20029;-77
2023/07/31 00:17:13;;;;;;;4.45;3.10;;;11.10;99.90;;;;;;8385564;28;20017;-77
2023/07/31 00:21:13;;;;;;;7.65;3.63;;;11.00;99.90;;;;;;8395355;28;20017;-78
2023/07/31 00:25:14;;;;;;;7.28;3.55;;;11.00;99.90;;;;;;8393686;28;20066;-77
2023/07/31 00:29:14;;;;;;;5.78;3.70;;;11.10;99.90;;;;;;8389922;28;20730;-77
2023/07/31 00:33:15;;;;;;;6.35;3.75;;;11.10;99.90;;;;;;8377445;28;20020;-78
2023/07/31 00:37:15;;;;;;;5.65;3.83;;;11.00;99.90;;;;;;8404226;28;20020;-77
2023/07/31 00:41:16;;;;;;;4.40;3.53;;;11.10;99.90;;;;;;8384147;28;20027;-77
2023/07/31 00:45:17;;;;;;;8.07;3.67;;;11.20;99.90;;;;;;8395564;28;20068;-78
2023/07/31 00:49:18;;;;;;;6.15;3.83;;;11.10;99.90;;;;;;8375869;28;20542;-78
2023/07/31 00:53:18;;;;;;;4.75;3.88;;;11.10;99.90;;;;;;8392893;28;20017;-78
2023/07/31 00:57:19;;;;;;;8.98;4.45;;;11.00;99.90;;;;;;8394400;28;20443;-77
2023/07/31 01:01:19;;;;;;;7.97;4.45;;;10.90;99.90;;;;;;8394745;28;20027;-77
2023/07/31 01:05:28;;;;;;;8.88;4.15;;;10.90;99.90;;;;;;8403997;28;20040;-77
2023/07/31 01:10:02;;;;;;;5.35;4.35;;;10.80;99.90;;;;;;8376585;28;20488;-78
2023/07/31 01:14:03;;;;;;;6.68;3.85;;;11.00;99.90;;;;;;8390404;28;20060;-77
2023/07/31 01:18:04;;;;;;;13.57;7.90;;;11.10;99.90;;;;;;8408591;28;20044;-77
2023/07/31 01:22:29;;;;;;;8.57;4.15;;;11.20;99.90;;;;;;8376149;28;20028;-77
2023/07/31 01:26:34;;;;;;;9.27;4.22;;;11.30;99.90;;;;;;8387519;28;20030;-79
2023/07/31 01:30:40;;;;;;;5.65;3.92;;;11.40;99.90;;;;;;8405951;28;20508;-79
2023/07/31 01:34:42;;;;;;;5.47;3.88;;;11.60;99.90;;;;;;8396508;28;20017;-79
2023/07/31 01:38:42;;;;;;;6.55;3.80;;;11.70;99.90;;;;;;8377562;28;20016;-79
2023/07/31 01:42:43;;;;;;;6.65;3.90;;;11.80;99.90;;;;;;8399807;28;20028;-77
2023/07/31 01:46:43;;;;;;;7.45;3.75;;;11.90;99.90;;;;;;8382077;28;20059;-79
2023/07/31 01:50:44;;;;;;;7.55;4.20;;;12.00;99.90;;;;;;8385768;28;20480;-79
2023/07/31 01:54:44;;;;;;;9.80;3.72;;;12.10;99.90;;;;;;8392945;28;20016;-78
2023/07/31 01:58:45;;;;;;;9.93;4.40;;;12.10;99.90;;;;;;8376595;28;20488;-79
2023/07/31 02:02:45;;;;;;;5.13;3.90;;;12.00;99.90;;;;;;8413549;28;20066;-78
2023/07/31 02:06:46;;;;;;;6.75;3.88;;;12.00;99.90;;;;;;8391123;28;20494;-77
2023/07/31 02:10:46;;;;;;;6.78;3.63;;;11.80;99.90;;;;;;8388569;28;20020;-79
2023/07/31 02:14:47;;;;;;;10.05;4.45;;;11.70;99.90;;;;;;8387922;28;20017;-79
2023/07/31 02:18:47;;;;;;;7.50;4.18;;;11.60;99.90;;;;;;8400465;28;20048;-78
2023/07/31 02:22:48;;;;;;;8.40;4.13;;;11.40;99.90;;;;;;8388450;28;20035;-77
2023/07/31 02:26:49;;;;;;;10.45;4.38;;;11.40;99.90;;;;;;8416462;28;20027;-77
2023/07/31 02:30:52;;;;;;;7.35;4.50;;;11.50;99.90;;;;;;8389472;28;20024;-77
2023/07/31 02:34:52;;;;;;;7.10;4.57;;;11.60;99.90;;;;;;8390594;28;20031;-79
2023/07/31 02:38:53;;;;;;;10.93;4.57;;;11.70;99.90;;;;;;8381784;28;20488;-77
2023/07/31 02:42:53;;;;;;;8.70;4.93;;;11.80;99.90;;;;;;8387508;28;20025;-77
2023/07/31 02:46:54;;;;;;;7.55;4.22;;;11.90;99.90;;;;;;8382843;28;20024;-77
2023/07/31 02:50:54;;;;;;;5.80;4.90;;;11.90;99.90;;;;;;8399448;28;20021;-77
2023/07/31 02:54:55;;;;;;;6.47;4.53;;;12.00;99.90;;;;;;8382880;28;20021;-77
2023/07/31 02:58:55;;;;;;;7.80;4.47;;;12.10;99.90;;;;;;8393575;28;20043;-77
2023/07/31 03:02:56;;;;;;;8.95;4.80;;;12.10;99.90;;;;;;8385198;28;20017;-79
2023/07/31 03:06:56;;;;;;;7.63;3.88;;;12.20;99.90;;;;;;8405885;28;20117;-76
2023/07/31 03:10:57;;;;;;;7.68;3.83;;;12.40;99.90;;;;;;8379858;28;20023;-77
2023/07/31 03:14:57;;;;;;;4.93;3.63;;;12.80;99.90;;;;;;8412752;28;20020;-77
2023/07/31 03:18:58;;;;;;;6.35;3.72;;;12.70;99.90;;;;;;8385609;28;20055;-78
2023/07/31 03:22:58;;;;;;;4.88;3.72;;;12.50;99.90;;;;;;8381796;28;20028;-77
2023/07/31 03:26:59;;;;;;;5.80;3.60;;;12.50;99.90;;;;;;8386799;28;20058;-77
2023/07/31 03:31:00;;;;;;;9.05;4.07;;;12.40;99.90;;;;;;8398623;28;20071;-78
2023/07/31 03:35:00;;;;;;;9.75;3.95;;;12.40;99.90;;;;;;8397161;28;20450;-78
2023/07/31 03:39:01;;;;;;;6.63;3.78;;;12.50;99.90;;;;;;8413039;28;20025;-78
2023/07/31 03:43:01;;;;;;;4.53;3.63;;;12.70;99.90;;;;;;8416754;28;20028;-78
2023/07/31 03:47:02;;;;;;;8.10;4.10;;;12.60;99.90;;;;;;8417109;28;20039;-77
2023/07/31 03:51:02;;;;;;;6.55;4.03;;;12.50;99.90;;;;;;8390049;28;20036;-79
2023/07/31 03:55:03;;;;;;;9.70;3.80;;;12.40;99.90;;;;;;8380474;28;20016;-77
2023/07/31 03:59:04;;;;;;;7.18;4.00;;;12.30;99.90;;;;;;8379284;28;20020;-78
2023/07/31 04:03:04;;;;;;;6.43;3.65;;;12.10;99.90;;;;;;8397957;28;20032;-77
2023/07/31 04:07:05;;;;;;;9.30;4.68;;;11.80;99.90;;;;;;8402698;28;20731;-79
2023/07/31 04:11:05;;;;;;;7.15;5.22;;;11.70;99.90;;;;;;8409899;28;20028;-78
2023/07/31 04:15:06;;;;;;;7.68;4.78;;;11.70;99.90;;;;;;8395374;28;20039;-76
2023/07/31 04:19:07;;;;;;;9.15;4.65;;;11.80;99.90;;;;;;8405702;28;20399;-78
2023/07/31 04:23:07;;;;;;;8.38;4.45;;;12.10;99.90;;;;;;8378709;28;20028;-77
2023/07/31 04:27:08;;;;;;;6.13;3.75;;;12.50;99.90;;;;;;8387060;28;20087;-79
2023/07/31 04:31:08;;;;;;;8.75;3.92;;;12.80;99.90;;;;;;8411479;28;20023;-76
2023/07/31 04:35:09;;;;;;;5.10;3.55;;;13.20;99.90;;;;;;8391102;28;20657;-78
2023/07/31 04:39:09;;;;;;;8.77;3.33;;;13.70;99.90;;;;;;8426069;28;20400;-77
2023/07/31 04:43:10;;;;;;;3.95;3.03;;;14.30;99.90;;;;;;8386929;28;20059;-78
2023/07/31 04:47:10;;;;;;;6.40;3.40;;;14.10;99.90;;;;;;8427686;22;20067;-77
2023/07/31 04:51:11;;;;;;;6.55;3.40;;;13.80;99.90;;;;;;8370739;28;20078;-77
2023/07/31 04:55:12;;;;;;;4.40;2.67;;;13.80;99.90;;;;;;8400126;28;20403;-75
2023/07/31 04:59:12;;;;;;;5.20;3.22;;;14.00;99.90;;;;;;8376341;28;20071;-77
2023/07/31 05:03:13;;;;;;;6.03;2.70;;;14.10;99.90;;;;;;8361073;28;20031;-77
2023/07/31 05:07:13;;;;;;;4.68;2.65;;;14.10;99.90;;;;;;8356963;28;20036;-77
2023/07/31 05:11:14;;;;;;;4.78;3.03;;;14.10;99.90;;;;;;8372683;28;20024;-76
2023/07/31 05:15:14;;;;;;;7.15;2.75;;;14.30;99.90;;;;;;8369215;28;20616;-77
2023/07/31 05:19:15;;;;;;;3.92;2.83;;;14.40;99.90;;;;;;8393380;28;20557;-77
2023/07/31 05:23:15;;;;;;;3.85;2.40;;;14.80;99.90;;;;;;8383234;28;20033;-76
2023/07/31 05:27:18;;;;;;;7.63;2.30;;;14.80;99.90;;;;;;8374350;28;20039;-77
2023/07/31 05:31:19;;;;;;;3.55;2.35;;;15.10;99.90;;;;;;8352756;28;20028;-77
2023/07/31 05:35:19;;;;;;;4.15;2.50;;;15.30;99.90;;;;;;8366260;28;20084;-77
2023/07/31 05:39:20;;;;;;;5.10;2.67;;;15.50;99.90;;;;;;8387279;28;20033;-77
2023/07/31 05:43:20;;;;;;;5.10;2.40;;;15.50;99.90;;;;;;8379890;28;20059;-77
2023/07/31 05:47:21;;;;;;;4.88;2.20;;;15.60;99.90;;;;;;8383419;28;20098;-78
2023/07/31 05:51:21;;;;;;;3.35;2.30;;;15.80;99.90;;;;;;8349641;28;20439;-77
2023/07/31 05:55:23;;;;;;;4.78;2.72;;;16.10;99.90;;;;;;8341775;28;20029;-78
2023/07/31 05:59:23;;;;;;;7.15;2.30;;;16.40;99.90;;;;;;8365920;28;20024;-78
2023/07/31 06:03:24;;;;;;;3.75;2.33;;;16.50;99.90;;;;;;8355522;28;20030;-79
2023/07/31 06:07:25;;;;;;;5.85;2.22;;;16.90;99.90;;;;;;8343799;28;20025;-78
2023/07/31 06:11:25;;;;;;;3.35;2.20;;;17.10;99.90;;;;;;8355323;28;20025;-78
2023/07/31 06:15:26;;;;;;;5.18;2.10;;;17.40;99.90;;;;;;8367993;28;20021;-78
2023/07/31 06:19:26;;;;;;;8.43;2.50;;;18.40;99.90;;;;;;8353868;28;20028;-78
2023/07/31 06:23:27;;;;;;;4.53;2.20;;;18.20;99.90;;;;;;8357804;28;20136;-78
2023/07/31 06:27:27;;;;;;;6.15;2.03;;;19.10;99.90;;;;;;8355188;28;20033;-79
2023/07/31 06:31:28;;;;;;;3.97;1.90;;;20.10;99.90;;;;;;8360184;28;20473;-79
2023/07/31 06:35:28;;;;;;;3.58;1.85;;;20.70;99.90;;;;;;8361611;28;20474;-79
2023/07/31 06:39:29;;;;;;;4.75;1.63;;;21.40;99.90;;;;;;8369238;28;20021;-79
2023/07/31 06:43:29;;;;;;;5.32;1.80;;;22.00;99.90;;;;;;8349985;28;20029;-79
2023/07/31 06:47:30;;;;;;;9.52;1.55;;;22.70;99.90;;;;;;8353665;28;20032;-79
2023/07/31 06:51:33;;;;;;;1.90;1.30;;;23.80;99.90;;;;;;8370114;28;20032;-78
2023/07/31 06:55:34;;;;;;;3.67;1.63;;;24.60;99.90;;;;;;8373134;28;20021;-79
2023/07/31 06:59:35;;;;;;;6.65;1.55;;;23.30;99.90;;;;;;8371951;28;20025;-79
2023/07/31 07:03:35;;;;;;;3.50;1.50;;;22.10;99.90;;;;;;8364436;28;20100;-79
2023/07/31 07:07:36;;;;;;;3.53;1.63;;;21.10;99.90;;;;;;8350294;28;20485;-79
2023/07/31 07:11:37;;;;;;;3.53;1.70;;;20.60;99.90;;;;;;8351362;28;20118;-80
2023/07/31 07:15:37;;;;;;;4.22;1.67;;;20.20;99.90;;;;;;8359002;28;20017;-78
2023/07/31 07:19:40;;;;;;;2.70;1.80;;;19.70;99.90;;;;;;8353160;28;20058;-79
2023/07/31 07:23:42;;;;;;;4.25;1.70;;;19.50;99.90;;;;;;8370224;28;20024;-78
2023/07/31 07:27:42;;;;;;;4.05;1.90;;;19.30;99.90;;;;;;8376068;28;20033;-79
2023/07/31 07:31:43;;;;;;;4.68;1.70;;;19.20;99.90;;;;;;8368155;28;20065;-79
2023/07/31 07:35:43;;;;;;;2.78;1.60;;;19.40;99.90;;;;;;8355445;28;20640;-80
2023/07/31 07:39:44;;;;;;;3.75;1.60;;;19.60;99.90;;;;;;8375540;28;20020;-80
2023/07/31 07:43:45;;;;;;;5.82;1.98;;;19.90;99.90;;;;;;8366357;28;20031;-79
2023/07/31 07:47:45;;;;;;;5.68;1.75;;;19.90;99.90;;;;;;8349617;28;20052;-78
2023/07/31 07:51:48;;;;;;;4.45;1.90;;;19.80;99.90;;;;;;8349460;28;20033;-79
2023/07/31 07:55:48;;;;;;;6.05;1.70;;;20.30;99.90;;;;;;8326456;28;20139;-79
2023/07/31 07:59:49;;;;;;;5.60;1.73;;;20.30;99.90;;;;;;8362665;28;20043;-78
2023/07/31 08:03:50;;;;;;;4.90;1.48;;;20.20;99.90;;;;;;8367555;28;20019;-79
2023/07/31 08:07:50;;;;;;;5.13;1.85;;;20.20;99.90;;;;;;8368538;28;20825;-79
2023/07/31 08:11:51;;;;;;;3.30;1.83;;;20.50;99.90;;;;;;8381707;28;20485;-79
2023/07/31 08:15:51;;;;;;;2.97;1.52;;;20.60;99.90;;;;;;8373382;28;20067;-79
2023/07/31 08:19:52;;;;;;;3.72;1.63;;;21.60;99.90;;;;;;8370450;28;20025;-79
2023/07/31 08:23:52;;;;;;;4.07;1.80;;;22.30;99.90;;;;;;8380847;28;20043;-79
2023/07/31 08:27:53;;;;;;;4.38;1.60;;;22.50;99.90;;;;;;8367676;28;20112;-80
2023/07/31 08:31:54;;;;;;;3.53;1.50;;;23.30;99.90;;;;;;8383522;28;20108;-79
2023/07/31 08:35:55;;;;;;;2.25;1.58;;;23.10;99.90;;;;;;8375323;28;20017;-78
2023/07/31 08:39:55;;;;;;;3.40;1.83;;;22.70;99.90;;;;;;8364528;28;20111;-79
2023/07/31 08:43:57;;;;;;;5.57;1.83;;;22.20;99.90;;;;;;8363081;28;20017;-79
2023/07/31 08:47:59;;;;;;;5.07;1.90;;;21.40;99.90;;;;;;8356639;28;20025;-80
2023/07/31 08:51:59;;;;;;;4.93;1.90;;;21.50;99.90;;;;;;8346879;28;20043;-79
2023/07/31 08:56:00;;;;;;;4.15;1.90;;;22.10;99.90;;;;;;8332337;28;20029;-79
2023/07/31 09:00:03;;;;;;;5.60;1.77;;;22.50;99.90;;;;;;8370249;28;20028;-79
2023/07/31 09:04:05;;;;;;;4.00;1.58;;;23.70;99.90;;;;;;8383036;28;20036;-80
2023/07/31 09:08:07;;;;;;;4.80;1.85;;;24.80;99.90;;;;;;8384488;28;20109;-79
2023/07/31 09:12:08;;;;;;;4.60;1.60;;;24.50;99.90;;;;;;8363004;28;20071;-80
2023/07/31 09:16:10;;;;;;;4.18;1.35;;;24.20;99.90;;;;;;8353461;28;20017;-81
2023/07/31 09:20:15;;;;;;;4.65;1.60;;;23.80;99.90;;;;;;8381193;28;20024;-80
2023/07/31 09:24:27;;;;;;;4.70;1.70;;;23.40;99.90;;;;;;8379651;28;20029;-79
2023/07/31 09:28:31;;;;;;;5.82;1.50;;;23.40;99.90;;;;;;8346450;28;20105;-79
2023/07/31 09:32:32;;;;;;;3.50;1.48;;;23.60;99.90;;;;;;8331130;28;20025;-80
2023/07/31 09:36:32;;;;;;;3.53;1.40;;;24.00;99.90;;;;;;8349403;28;20030;-79
2023/07/31 09:40:35;;;;;;;3.25;1.80;;;23.80;99.90;;;;;;8349337;28;20089;-78
2023/07/31 09:44:40;;;;;;;1.70;1.40;;;23.70;99.90;;;;;;8374880;28;20047;-80
2023/07/31 09:48:41;;;;;;;3.45;1.80;;;23.60;99.90;;;;;;8341080;28;20616;-78
2023/07/31 09:52:43;;;;;;;4.38;1.80;;;24.10;99.90;;;;;;8353032;28;20048;-80
2023/07/31 09:56:46;;;;;;;3.60;1.58;;;24.40;99.90;;;;;;8368590;28;20024;-80
2023/07/31 10:00:47;;;;;;;5.72;1.90;;;24.00;99.90;;;;;;8371717;28;20029;-80
2023/07/31 10:04:50;;;;;;;3.63;1.48;;;23.30;99.90;;;;;;8354982;28;20025;-80
2023/07/31 10:08:52;;;;;;;3.47;1.80;;;23.80;99.90;;;;;;8346898;28;20029;-79
2023/07/31 10:12:54;;;;;;;3.67;2.03;;;24.20;99.90;;;;;;8351842;28;20024;-79
2023/07/31 10:16:55;;;;;;;3.63;1.45;;;24.10;99.90;;;;;;8351625;28;20025;-80
2023/07/31 10:20:57;;;;;;;3.90;1.35;;;24.00;99.90;;;;;;8335260;28;20037;-79
2023/07/31 10:24:59;;;;;;;4.00;1.70;;;23.50;99.90;;;;;;8360658;28;20057;-79
2023/07/31 10:29:00;;;;;;;5.20;1.90;;;23.80;99.90;;;;;;8347067;28;20028;-79
2023/07/31 10:33:02;;;;;;;3.55;1.50;;;24.00;99.90;;;;;;8342148;28;20563;-79
2023/07/31 10:37:23;;;;;;;4.53;1.75;;;24.30;99.90;;;;;;8360940;28;20389;-79
2023/07/31 10:41:31;;;;;;;4.22;1.42;;;24.90;99.90;;;;;;8341861;28;20393;-79
2023/07/31 10:45:38;;;;;;;6.90;1.80;;;25.90;99.90;;;;;;8347603;28;20044;-80
2023/07/31 10:49:39;;;;;;;5.82;1.77;;;26.60;99.90;;;;;;8336085;28;20067;-81
2023/07/31 10:53:40;;;;;;;2.88;1.30;;;27.30;98.70;;;;;;8354201;28;20032;-80
2023/07/31 10:57:45;;;;;;;4.43;1.73;;;27.60;98.50;;;;;;8357231;28;20542;-80
2023/07/31 11:01:57;;;;;;;4.90;1.67;;;27.60;97.30;;;;;;8368415;28;20077;-79
2023/07/31 11:06:04;;;;;;;4.95;1.60;;;26.50;98.40;;;;;;8371652;28;20417;-79
2023/07/31 11:10:05;;;;;;;3.83;1.70;;;25.80;99.90;;;;;;8355894;28;20033;-80
2023/07/31 11:14:06;;;;;;;6.97;1.45;;;25.60;99.90;;;;;;8352750;28;20056;-80
2023/07/31 11:18:07;;;;;;;3.95;1.80;;;26.80;98.30;;;;;;8347449;28;20022;-80
2023/07/31 11:22:09;;;;;;;3.92;1.70;;;27.30;96.80;;;;;;8347694;28;20037;-81
2023/07/31 11:26:10;;;;;;;2.97;1.80;;;26.60;97.80;;;;;;8340906;28;20111;-80
2023/07/31 11:30:11;;;;;;;3.35;1.77;;;27.70;97.90;;;;;;8352791;28;20034;-80
2023/07/31 11:34:12;;;;;;;5.57;1.90;;;29.00;94.50;;;;;;8370187;28;20358;-79
2023/07/31 11:38:25;;;;;;;4.55;1.67;;;29.00;95.10;;;;;;8386408;28;20029;-80
2023/07/31 11:42:25;;;;;;;3.50;1.77;;;27.60;93.30;;;;;;8381818;28;20053;-80
2023/07/31 11:46:26;;;;;;;4.57;1.60;;;27.00;98.30;;;;;;8356326;28;20028;-79
2023/07/31 11:50:27;;;;;;;7.10;1.90;;;27.20;95.50;;;;;;8379573;28;20017;-79
2023/07/31 11:54:28;;;;;;;3.13;1.65;;;26.10;96.80;;;;;;8344412;28;20461;-79
2023/07/31 11:58:30;;;;;;;3.88;1.73;;;25.20;98.00;;;;;;8360433;28;20684;-80
2023/07/31 12:02:31;;;;;;;3.28;1.60;;;24.60;99.90;;;;;;8366250;28;20040;-81
2023/07/31 12:06:36;;;;;;;4.75;1.90;;;24.00;99.90;;;;;;8322374;28;20074;-80
2023/07/31 12:10:36;;;;;;;4.85;2.17;;;23.50;99.90;;;;;;8336834;28;20076;-80
2023/07/31 12:14:41;;;;;;;3.95;1.77;;;23.20;99.90;;;;;;8378850;28;20056;-80
2023/07/31 12:18:42;;;;;;;5.50;2.28;;;23.30;99.90;;;;;;8333369;28;20017;-80
2023/07/31 12:22:42;;;;;;;3.05;1.75;;;23.60;99.90;;;;;;8349479;28;20056;-81
2023/07/31 12:26:46;;;;;;;3.40;1.70;;;24.10;99.90;;;;;;8314209;28;20171;-81
2023/07/31 12:30:47;;;;;;;3.85;1.70;;;24.80;99.20;;;;;;8355070;28;20021;-79
2023/07/31 12:34:47;;;;;;;4.53;1.80;;;26.80;98.00;;;;;;8346419;28;20013;-81
2023/07/31 12:38:50;;;;;;;6.00;1.67;;;28.10;95.00;;;;;;8361768;28;20016;-78
2023/07/31 12:42:51;;;;;;;2.92;1.38;;;30.80;92.30;;;;;;8349813;28;20032;-79
2023/07/31 12:46:51;;;;;;;3.25;2.00;;;32.30;87.30;;;;;;8365276;28;20484;-82
2023/07/31 12:50:52;;;;;;;2.83;1.50;;;32.50;80.40;;;;;;8353301;28;20033;-80
2023/07/31 12:54:52;;;;;;;5.25;1.63;;;32.20;82.10;;;;;;8361870;28;20043;-80
2023/07/31 12:58:53;;;;;;;2.97;1.75;;;30.90;79.50;;;;;;8371613;28;20805;-80
2023/07/31 13:02:54;;;;;;;3.08;2.00;;;30.60;84.90;;;;;;8361203;28;20487;-81
2023/07/31 13:06:55;;;;;;;2.83;1.70;;;30.90;82.80;;;;;;8365698;28;20103;-81
2023/07/31 13:10:55;;;;;;;4.47;2.05;;;30.90;85.30;;;;;;8336403;28;20033;-81
2023/07/31 13:14:56;;;;;;;3.72;2.05;;;30.40;87.40;;;;;;8358014;28;20021;-81
2023/07/31 13:18:56;;;;;;;4.53;2.10;;;30.50;82.90;;;;;;8357629;28;20511;-80
2023/07/31 13:22:57;;;;;;;9.43;2.97;;;30.00;80.60;;;;;;8369764;28;20025;-81
2023/07/31 13:26:58;;;;;;;4.47;2.05;;;28.60;84.30;;;;;;8341816;28;20025;-80
2023/07/31 13:30:58;;;;;;;6.95;2.20;;;28.20;88.00;;;;;;8365310;28;20035;-80
2023/07/31 13:34:59;;;;;;;5.03;2.20;;;27.20;90.90;;;;;;8348059;28;20021;-81
2023/07/31 13:39:00;;;;;;;2.85;1.90;;;26.70;93.30;;;;;;8356422;28;20107;-81
2023/07/31 13:43:00;;;;;;;14.32;2.05;;;28.60;88.90;;;;;;8375580;28;20023;-81
2023/07/31 13:47:01;;;;;;;6.35;2.50;;;31.50;77.80;;;;;;8368183;28;20032;-81
2023/07/31 13:51:02;;;;;;;7.95;2.58;;;32.30;75.50;;;;;;8375670;28;20542;-81
2023/07/31 13:55:03;;;;;;;3.40;1.95;;;33.80;73.60;;;;;;8371990;28;20077;-81
2023/07/31 13:59:03;;;;;;;4.25;2.00;;;33.50;78.60;;;;;;8384470;28;20033;-80
2023/07/31 14:03:04;;;;;;;7.93;2.75;;;32.40;73.70;;;;;;8356007;28;20501;-80
2023/07/31 14:07:05;;;;;;;3.97;1.92;;;29.50;79.10;;;;;;8362261;28;20021;-81
2023/07/31 14:11:05;;;;;;;2.40;1.70;;;27.90;82.90;;;;;;8341593;28;20029;-79
2023/07/31 14:15:06;;;;;;;4.88;2.10;;;26.70;86.60;;;;;;8333238;28;20079;-80
2023/07/31 14:19:08;;;;;;;4.53;1.95;;;25.70;90.70;;;;;;8330961;28;20057;-80
2023/07/31 14:23:08;;;;;;;4.03;1.70;;;25.40;90.70;;;;;;8368901;28;20022;-80
2023/07/31 14:27:09;;;;;;;5.25;1.92;;;27.80;88.90;;;;;;8329396;28;20439;-80
2023/07/31 14:31:10;;;;;;;5.72;2.53;;;28.00;86.40;;;;;;8396134;28;20040;-80
2023/07/31 14:35:10;;;;;;;3.17;2.00;;;26.80;88.30;;;;;;8338156;28;20072;-80
2023/07/31 14:39:11;;;;;;;3.28;1.90;;;25.70;90.00;;;;;;8381698;28;20103;-80
2023/07/31 14:43:11;;;;;;;4.22;1.98;;;25.20;92.60;;;;;;8337564;28;20541;-80
2023/07/31 14:47:12;;;;;;;3.42;2.20;;;25.00;93.50;;;;;;8347643;28;20037;-80
2023/07/31 14:51:14;;;;;;;5.13;2.15;;;24.90;94.20;;;;;;8337382;28;20040;-81
2023/07/31 14:55:14;;;;;;;3.50;2.17;;;24.90;94.40;;;;;;8363921;28;20073;-80
2023/07/31 14:59:15;;;;;;;6.82;2.13;;;25.60;93.90;;;;;;8351052;28;20025;-80
2023/07/31 15:03:16;;;;;;;3.17;1.92;;;25.90;94.40;;;;;;8351482;28;20424;-80
2023/07/31 15:07:16;;;;;;;4.75;2.00;;;25.70;92.90;;;;;;8341602;28;20052;-80
2023/07/31 15:11:18;;;;;;;3.67;2.10;;;27.20;91.00;;;;;;8366193;28;20063;-80
2023/07/31 15:15:18;;;;;;;5.45;2.00;;;27.80;90.60;;;;;;8328507;28;20036;-81
2023/07/31 15:19:19;;;;;;;4.35;2.13;;;28.30;90.80;;;;;;8364503;28;20082;-80
2023/07/31 15:23:19;;;;;;;4.30;2.05;;;29.20;86.40;;;;;;8334665;28;20030;-79
2023/07/31 15:27:20;;;;;;;4.95;2.20;;;29.10;86.90;;;;;;8365728;28;20028;-79
2023/07/31 15:31:22;;;;;;;3.75;2.28;;;28.60;86.90;;;;;;8350919;28;20029;-80
2023/07/31 15:35:22;;;;;;;5.25;2.70;;;27.30;88.80;;;;;;8341270;28;20079;-80
2023/07/31 15:39:23;;;;;;;6.07;3.15;;;26.30;91.10;;;;;;8336055;28;20025;-79
2023/07/31 15:43:23;;;;;;;6.80;2.50;;;26.20;92.10;;;;;;8331536;28;20036;-80
2023/07/31 15:47:24;;;;;;;4.40;2.67;;;26.30;92.50;;;;;;8362579;28;20043;-81
2023/07/31 15:51:25;;;;;;;4.78;3.17;;;26.40;92.20;;;;;;8359807;28;20053;-81
2023/07/31 15:55:26;;;;;;;6.65;2.08;;;26.20;92.30;;;;;;8343475;28;20021;-81
2023/07/31 15:59:26;;;;;;;3.63;2.20;;;25.90;93.00;;;;;;8356000;28;20154;-80
2023/07/31 16:03:27;;;;;;;4.18;2.75;;;25.80;92.90;;;;;;8349103;28;20078;-80
2023/07/31 16:07:28;;;;;;;13.68;9.82;;;25.60;93.50;;;;;;8325215;28;20571;-80
2023/07/31 16:11:28;;;;;;;5.50;2.58;;;25.80;94.40;;;;;;8336107;28;20084;-80
2023/07/31 16:15:29;;;;;;;4.55;3.00;;;25.80;92.60;;;;;;8344080;28;20067;-80
2023/07/31 16:19:30;;;;;;;8.32;4.18;;;25.90;94.80;;;;;;8362267;28;20037;-80
2023/07/31 16:23:30;;;;;;;6.18;2.60;;;25.90;94.00;;;;;;8360162;28;20020;-80
2023/07/31 16:27:31;;;;;;;5.28;2.50;;;25.80;93.90;;;;;;8379337;28;20033;-80
2023/07/31 16:31:31;;;;;;;4.45;2.50;;;25.80;94.50;;;;;;8320104;28;20040;-80
2023/07/31 16:35:32;;;;;;;4.03;2.40;;;25.60;94.20;;;;;;8376396;28;20442;-80
2023/07/31 16:39:36;;;;;;;5.70;2.70;;;25.70;92.70;;;;;;8333137;28;20066;-80
2023/07/31 16:43:36;;;;;;;8.38;3.70;;;25.50;93.90;;;;;;8352845;28;20389;-79
2023/07/31 16:47:37;;;;;;;6.18;2.80;;;25.30;93.20;;;;;;8347915;28;20040;-80
2023/07/31 16:51:37;;;;;;;4.43;2.70;;;25.20;93.60;;;;;;8361046;28;20510;-80
2023/07/31 16:55:38;;;;;;;5.07;2.75;;;25.10;93.60;;;;;;8340604;28;20017;-80
2023/07/31 16:59:38;;;;;;;5.22;2.90;;;24.90;95.00;;;;;;8370399;28;20562;-80
2023/07/31 17:03:39;;;;;;;5.80;2.83;;;24.50;94.00;;;;;;8347142;28;20060;-79
2023/07/31 17:07:39;;;;;;;5.18;2.72;;;24.00;95.40;;;;;;8358325;28;20029;-79
2023/07/31 17:11:40;;;;;;;6.53;2.80;;;23.90;95.60;;;;;;8328915;28;20030;-80
2023/07/31 17:15:40;;;;;;;5.13;2.72;;;23.80;96.70;;;;;;8375408;28;20110;-80
2023/07/31 17:19:41;;;;;;;4.38;2.70;;;23.90;95.20;;;;;;8346178;28;20017;-80
2023/07/31 17:23:41;;;;;;;4.95;2.80;;;23.70;96.00;;;;;;8385946;28;20028;-80
2023/07/31 17:27:42;;;;;;;4.88;2.63;;;23.50;95.80;;;;;;8361240;28;20048;-80
2023/07/31 17:31:43;;;;;;;4.78;2.80;;;23.30;96.70;;;;;;8352741;28;20025;-80
2023/07/31 17:35:43;;;;;;;4.55;2.58;;;23.20;96.10;;;;;;8347447;28;20029;-80
2023/07/31 17:39:44;;;;;;;5.75;2.85;;;23.00;98.50;;;;;;8368522;28;20028;-80
2023/07/31 17:43:45;;;;;;;7.07;2.75;;;23.10;97.70;;;;;;8358721;28;20658;-80
2023/07/31 17:47:45;;;;;;;8.27;3.03;;;22.80;97.90;;;;;;8370639;28;20032;-80
2023/07/31 17:51:46;;;;;;;4.60;2.95;;;22.60;98.60;;;;;;8346833;28;20404;-80
2023/07/31 17:55:47;;;;;;;5.05;2.97;;;22.50;99.20;;;;;;8353988;28;20058;-80
2023/07/31 17:59:48;;;;;;;6.47;2.80;;;22.40;99.90;;;;;;8371103;28;20042;-80
2023/07/31 18:03:48;;;;;;;4.70;2.95;;;22.40;99.20;;;;;;8339103;28;21199;-80
2023/07/31 18:07:49;;;;;;;5.43;2.92;;;22.20;99.60;;;;;;8360338;28;20033;-79
2023/07/31 18:11:50;;;;;;;4.95;2.85;;;22.00;99.50;;;;;;8356836;28;20025;-80
2023/07/31 18:15:50;;;;;;;8.98;3.22;;;22.00;99.90;;;;;;8358686;28;20369;-80
2023/07/31 18:19:51;;;;;;;6.03;2.85;;;21.90;99.90;;;;;;8350343;28;20021;-79
2023/07/31 18:23:51;;;;;;;5.60;3.03;;;21.80;99.90;;;;;;8343189;28;20031;-80
2023/07/31 18:27:52;;;;;;;5.28;2.88;;;21.70;99.90;;;;;;8333849;28;20067;-80
2023/07/31 18:31:52;;;;;;;6.43;3.05;;;21.70;99.90;;;;;;8347723;28;20029;-79
2023/07/31 18:35:53;;;;;;;9.70;3.55;;;21.50;99.90;;;;;;8346234;28;20433;-79
2023/07/31 18:39:53;;;;;;;7.03;3.10;;;21.40;99.90;;;;;;8343864;28;20022;-79
2023/07/31 18:43:54;;;;;;;7.07;3.00;;;21.10;99.90;;;;;;8338903;28;20025;-79
2023/07/31 18:47:55;;;;;;;8.52;3.28;;;20.90;99.90;;;;;;8347616;28;20032;-79
2023/07/31 18:51:56;;;;;;;7.68;2.95;;;20.90;99.90;;;;;;8336330;28;20025;-79
2023/07/31 18:55:56;;;;;;;5.07;3.10;;;21.00;99.90;;;;;;8344610;28;20025;-80
2023/07/31 18:59:57;;;;;;;8.23;3.28;;;20.90;99.90;;;;;;8336963;28;20079;-80
2023/07/31 19:04:00;;;;;;;4.80;3.17;;;20.70;99.90;;;;;;8338890;28;20021;-79
2023/07/31 19:08:04;;;;;;;7.93;3.15;;;20.50;99.90;;;;;;8360424;28;20025;-78
2023/07/31 19:12:05;;;;;;;4.95;3.20;;;20.30;99.90;;;;;;8356247;28;20078;-79
2023/07/31 19:16:07;;;;;;;6.40;3.28;;;20.10;99.90;;;;;;8377257;28;20021;-80
2023/07/31 19:20:08;;;;;;;6.40;3.17;;;19.90;99.90;;;;;;8380744;28;20017;-79
2023/07/31 19:24:08;;;;;;;5.63;3.20;;;19.80;99.90;;;;;;8348419;28;20033;-79
2023/07/31 19:28:09;;;;;;;6.72;2.90;;;19.60;99.90;;;;;;8338170;28;20496;-80
2023/07/31 19:32:09;;;;;;;5.65;3.00;;;19.80;99.90;;;;;;8331140;28;20029;-79
2023/07/31 19:36:10;;;;;;;4.55;2.92;;;20.00;99.90;;;;;;8377415;28;20047;-79
2023/07/31 19:40:11;;;;;;;7.30;2.95;;;20.00;99.90;;;;;;8377238;28;20036;-80
2023/07/31 19:44:11;;;;;;;6.75;3.28;;;19.90;99.90;;;;;;8354720;28;20047;-80
2023/07/31 19:48:12;;;;;;;5.93;3.05;;;20.00;99.90;;;;;;8364296;28;20040;-79
2023/07/31 19:52:12;;;;;;;5.85;2.90;;;20.00;99.90;;;;;;8347446;28;20079;-79
2023/07/31 19:56:13;;;;;;;5.60;2.97;;;19.80;99.90;;;;;;8365788;28;20021;-80
2023/07/31 20:00:13;;;;;;;6.22;2.88;;;19.90;99.90;;;;;;8352661;28;20053;-79
2023/07/31 20:04:14;;;;;;;6.57;2.97;;;19.90;99.90;;;;;;8368490;28;20157;-79
2023/07/31 20:08:15;;;;;;;6.20;3.00;;;19.70;99.90;;;;;;8384351;28;20022;-80
2023/07/31 20:12:16;;;;;;;5.35;2.95;;;19.60;99.90;;;;;;8359053;28;20056;-80
2023/07/31 20:16:19;;;;;;;4.72;2.80;;;19.70;99.90;;;;;;8351181;28;20021;-79
2023/07/31 20:20:20;;;;;;;6.57;3.33;;;19.50;99.90;;;;;;8362127;28;20020;-79
2023/07/31 20:24:21;;;;;;;8.10;3.30;;;19.50;99.90;;;;;;8382382;28;20481;-79
2023/07/31 20:28:22;;;;;;;5.40;2.60;;;19.50;99.90;;;;;;8356255;28;20052;-79
2023/07/31 20:32:22;;;;;;;5.40;2.83;;;19.50;99.90;;;;;;8351548;28;20052;-80
2023/07/31 20:36:23;;;;;;;6.72;2.95;;;19.50;99.90;;;;;;8359879;28;20092;-80
2023/07/31 20:40:23;;;;;;;7.43;3.22;;;19.30;99.90;;;;;;8331891;28;20032;-80
2023/07/31 20:44:24;;;;;;;10.63;3.33;;;19.40;99.90;;;;;;8335385;28;20017;-79
2023/07/31 20:48:24;;;;;;;5.97;2.33;;;19.30;99.90;;;;;;8341491;28;20393;-79
2023/07/31 20:52:25;;;;;;;3.42;2.45;;;19.20;99.90;;;;;;8332162;28;20113;-80